createdAt,value
2022-12-20T00:01:35.028Z,10.07
2022-12-20T00:04:05.407Z,9.95
2022-12-20T00:06:34.613Z,10.08
2022-12-20T00:09:03.382Z,10.08
2022-12-20T00:11:30.108Z,10.30
2022-12-20T00:13:57.916Z,10.37
2022-12-20T00:16:27.168Z,10.19
2022-12-20T00:18:59.308Z,10.24
2022-12-20T00:21:26.334Z,10.22
2022-12-20T00:23:54.238Z,10.24
2022-12-20T00:26:24.194Z,10.34
2022-12-20T00:28:52.336Z,10.21
2022-12-20T00:31:20.250Z,10.25
2022-12-20T00:33:50.134Z,10.33
2022-12-20T00:36:17.439Z,10.28
2022-12-20T00:38:47.647Z,10.37
2022-12-20T00:41:36.521Z,10.45
2022-12-20T00:44:04.162Z,10.33
2022-12-20T00:46:32.267Z,10.46
2022-12-20T00:48:59.106Z,10.34
2022-12-20T00:51:28.423Z,10.37
2022-12-20T00:53:55.499Z,10.35
2022-12-20T00:56:22.566Z,10.37
2022-12-20T00:58:49.550Z,10.42
2022-12-20T01:01:24.087Z,10.40
2022-12-20T01:03:52.524Z,10.36
2022-12-20T01:06:20.163Z,10.58
2022-12-20T01:08:46.854Z,10.57
2022-12-20T01:11:19.387Z,10.74
2022-12-20T01:13:50.074Z,10.70
2022-12-20T01:16:23.234Z,10.62
2022-12-20T01:18:51.557Z,10.70
2022-12-20T01:21:20.249Z,10.63
2022-12-20T01:23:47.423Z,10.36
2022-12-20T01:26:17.707Z,10.37
2022-12-20T01:28:46.707Z,10.43
2022-12-20T01:31:16.614Z,10.49
2022-12-20T01:33:44.643Z,10.51
2022-12-20T01:36:14.185Z,10.46
2022-12-20T01:38:41.363Z,10.59
2022-12-20T01:41:08.592Z,10.67
2022-12-20T01:43:58.803Z,10.65
2022-12-20T01:46:27.833Z,10.70
2022-12-20T01:49:10.755Z,10.70
2022-12-20T01:51:42.938Z,10.87
2022-12-20T01:54:19.199Z,10.73
2022-12-20T01:56:50.461Z,10.71
2022-12-20T01:59:18.243Z,10.78
2022-12-20T02:01:45.260Z,10.89
2022-12-20T02:04:12.152Z,10.83
2022-12-20T02:06:39.059Z,10.90
2022-12-20T02:09:08.397Z,11.02
2022-12-20T02:12:09.278Z,11.00
2022-12-20T02:14:42.225Z,11.03
2022-12-20T02:17:17.408Z,11.09
2022-12-20T02:20:06.830Z,10.83
2022-12-20T02:22:33.367Z,10.92
2022-12-20T02:25:18.786Z,11.00
2022-12-20T02:28:05.047Z,10.98
2022-12-20T02:30:39.206Z,10.98
2022-12-20T02:33:10.399Z,10.86
2022-12-20T02:35:39.401Z,10.91
2022-12-20T02:38:44.921Z,10.83
2022-12-20T02:41:15.294Z,10.95
2022-12-20T02:44:03.051Z,10.88
2022-12-20T02:46:32.709Z,10.98
2022-12-20T02:49:27.671Z,11.10
2022-12-20T02:51:56.900Z,10.92
2022-12-20T02:54:24.251Z,11.14
2022-12-20T02:57:00.350Z,10.99
2022-12-20T02:59:37.501Z,11.10
2022-12-20T03:02:05.957Z,11.10
2022-12-20T03:04:37.589Z,11.09
2022-12-20T03:07:06.116Z,11.13
2022-12-20T03:09:36.543Z,11.03
2022-12-20T03:12:04.272Z,11.13
2022-12-20T03:14:34.310Z,11.05
2022-12-20T03:17:03.968Z,11.08
2022-12-20T03:19:30.912Z,11.13
2022-12-20T03:21:58.865Z,10.91
2022-12-20T03:24:26.156Z,11.04
2022-12-20T03:26:58.106Z,11.06
2022-12-20T03:29:25.760Z,11.10
2022-12-20T03:31:52.568Z,10.99
2022-12-20T03:34:19.402Z,10.98
2022-12-20T03:36:45.948Z,11.22
2022-12-20T03:39:12.498Z,11.23
2022-12-20T03:41:41.547Z,11.02
2022-12-20T03:44:09.936Z,11.05
2022-12-20T03:46:36.704Z,11.17
2022-12-20T03:49:04.670Z,11.14
2022-12-20T03:51:33.068Z,11.17
2022-12-20T03:53:59.888Z,11.15
2022-12-20T03:56:46.360Z,11.22
2022-12-20T03:59:12.921Z,11.22
2022-12-20T04:01:40.312Z,11.20
2022-12-20T04:04:10.011Z,11.21
2022-12-20T04:06:36.584Z,11.11
2022-12-20T04:09:03.451Z,11.02
2022-12-20T04:11:36.556Z,11.17
2022-12-20T04:14:10.563Z,11.02
2022-12-20T04:16:37.706Z,11.07
2022-12-20T04:19:05.283Z,10.89
2022-12-20T04:21:37.660Z,10.98
2022-12-20T04:24:06.064Z,10.89
2022-12-20T04:26:45.748Z,10.85
2022-12-20T04:29:13.635Z,10.86
2022-12-20T04:31:42.207Z,10.67
2022-12-20T04:34:09.195Z,10.86
2022-12-20T04:36:36.145Z,10.71
2022-12-20T04:39:06.386Z,10.74
2022-12-20T04:41:43.121Z,10.83
2022-12-20T04:44:12.886Z,10.71
2022-12-20T04:46:39.640Z,10.62
2022-12-20T04:49:10.757Z,10.72
2022-12-20T04:51:40.281Z,10.65
2022-12-20T04:54:06.928Z,10.55
2022-12-20T04:56:45.603Z,10.54
2022-12-20T04:59:17.343Z,10.54
2022-12-20T05:01:46.970Z,10.55
2022-12-20T05:04:20.854Z,10.51
2022-12-20T05:06:47.502Z,10.48
2022-12-20T05:09:14.443Z,10.57
2022-12-20T05:11:41.190Z,10.53
2022-12-20T05:14:08.834Z,10.51
2022-12-20T05:16:37.458Z,10.53
2022-12-20T05:19:10.049Z,10.49
2022-12-20T05:22:00.370Z,10.46
2022-12-20T05:24:45.743Z,10.50
2022-12-20T05:27:24.322Z,10.45
2022-12-20T05:30:16.862Z,10.49
2022-12-20T05:32:44.891Z,10.35
2022-12-20T05:35:11.793Z,10.35
2022-12-20T05:37:41.360Z,10.34
2022-12-20T05:40:16.117Z,10.44
2022-12-20T05:42:43.150Z,10.54
2022-12-20T05:45:11.583Z,10.56
2022-12-20T05:47:47.771Z,10.47
2022-12-20T05:50:23.260Z,10.40
2022-12-20T05:53:35.911Z,10.54
2022-12-20T05:56:14.344Z,10.53
2022-12-20T05:58:44.182Z,10.38
2022-12-20T06:01:11.054Z,10.32
2022-12-20T06:03:40.295Z,10.45
2022-12-20T06:06:14.974Z,10.44
2022-12-20T06:08:44.889Z,10.46
2022-12-20T06:11:24.337Z,10.40
2022-12-20T06:14:14.598Z,10.54
2022-12-20T06:16:45.681Z,10.44
2022-12-20T06:19:21.193Z,10.39
2022-12-20T06:21:50.317Z,10.51
2022-12-20T06:24:21.274Z,10.49
2022-12-20T06:26:48.391Z,10.47
2022-12-20T06:29:17.506Z,10.54
2022-12-20T06:31:50.528Z,10.55
2022-12-20T06:34:18.347Z,10.45
2022-12-20T06:36:45.584Z,10.46
2022-12-20T06:39:17.655Z,10.43
2022-12-20T06:42:04.553Z,10.30
2022-12-20T06:44:31.120Z,10.44
2022-12-20T06:46:57.682Z,10.55
2022-12-20T06:49:24.612Z,10.49
2022-12-20T06:51:51.463Z,10.49
2022-12-20T06:54:22.659Z,10.53
2022-12-20T06:56:50.429Z,10.63
2022-12-20T06:59:17.186Z,10.54
2022-12-20T07:01:44.846Z,10.49
2022-12-20T07:04:11.698Z,10.43
2022-12-20T07:06:38.216Z,10.52
2022-12-20T07:09:04.791Z,10.48
2022-12-20T07:11:31.550Z,10.51
2022-12-20T07:13:58.411Z,10.53
2022-12-20T07:16:25.642Z,10.52
2022-12-20T07:18:53.669Z,10.60
2022-12-20T07:21:21.304Z,10.64
2022-12-20T07:23:48.271Z,10.56
2022-12-20T07:26:15.656Z,10.67
2022-12-20T07:28:42.817Z,10.65
2022-12-20T07:31:09.378Z,10.68
2022-12-20T07:33:37.283Z,10.66
2022-12-20T07:36:06.772Z,10.51
2022-12-20T07:38:35.530Z,10.68
2022-12-20T07:41:08.225Z,10.82
2022-12-20T07:43:34.996Z,10.79
2022-12-20T07:46:02.471Z,10.70
2022-12-20T07:48:29.299Z,10.73
2022-12-20T07:51:02.515Z,10.67
2022-12-20T07:53:32.987Z,10.80
2022-12-20T07:56:01.657Z,10.78
2022-12-20T07:58:30.963Z,10.70
2022-12-20T08:00:58.075Z,10.62
2022-12-20T08:03:59.683Z,10.89
2022-12-20T08:06:26.538Z,10.91
2022-12-20T08:08:55.815Z,10.86
2022-12-20T08:11:23.990Z,10.98
2022-12-20T08:13:57.558Z,11.01
2022-12-20T08:16:31.240Z,10.96
2022-12-20T08:18:57.841Z,11.02
2022-12-20T08:21:24.449Z,10.92
2022-12-20T08:23:53.099Z,10.86
2022-12-20T08:26:19.695Z,10.84
2022-12-20T08:28:46.836Z,10.88
2022-12-20T08:31:13.482Z,10.88
2022-12-20T08:33:40.788Z,10.88
2022-12-20T08:36:13.022Z,10.82
2022-12-20T08:38:40.391Z,10.78
2022-12-20T08:41:25.227Z,10.79
2022-12-20T08:43:51.852Z,10.70
2022-12-20T08:46:18.455Z,10.58
2022-12-20T08:48:45.077Z,10.65
2022-12-20T08:51:12.026Z,10.72
2022-12-20T08:53:39.370Z,10.68
2022-12-20T08:56:12.638Z,10.83
2022-12-20T08:58:40.305Z,10.81
2022-12-20T09:01:09.673Z,10.81
2022-12-20T09:03:37.241Z,10.90
2022-12-20T09:06:10.303Z,10.88
2022-12-20T09:08:38.305Z,10.81
2022-12-20T09:11:14.248Z,10.89
2022-12-20T09:13:44.255Z,10.95
2022-12-20T09:16:14.015Z,10.94
2022-12-20T09:18:41.207Z,11.02
2022-12-20T09:21:08.349Z,10.95
2022-12-20T09:23:36.732Z,11.17
2022-12-20T09:26:06.581Z,11.20
2022-12-20T09:28:34.413Z,11.23
2022-12-20T09:31:03.120Z,11.37
2022-12-20T09:33:30.837Z,11.22
2022-12-20T09:35:59.027Z,11.41
2022-12-20T09:38:26.218Z,11.42
2022-12-20T09:41:48.660Z,11.54
2022-12-20T09:43:53.482Z,11.52
2022-12-20T09:46:20.392Z,11.58
2022-12-20T09:48:47.890Z,11.75
2022-12-20T09:51:43.380Z,11.76
2022-12-20T09:54:39.343Z,11.87
2022-12-20T09:57:15.045Z,11.88
2022-12-20T09:59:49.274Z,12.05
2022-12-20T10:05:41.149Z,12.13
2022-12-20T10:08:11.022Z,12.18
2022-12-20T10:11:12.597Z,12.25
2022-12-20T10:14:10.257Z,12.21
2022-12-20T10:16:46.864Z,12.07
2022-12-20T10:19:22.704Z,12.21
2022-12-20T10:22:37.703Z,12.30
2022-12-20T10:25:13.367Z,12.22
2022-12-20T10:27:53.132Z,12.18
2022-12-20T10:30:22.599Z,12.19
2022-12-20T10:32:53.787Z,12.31
2022-12-20T10:35:29.271Z,12.35
2022-12-20T10:38:13.822Z,12.40
2022-12-20T10:41:19.514Z,12.42
2022-12-20T10:43:45.414Z,12.46
2022-12-20T10:46:14.176Z,12.50
2022-12-20T10:48:43.141Z,12.46
2022-12-20T10:51:15.451Z,12.44
2022-12-20T10:53:59.448Z,12.68
2022-12-20T10:56:31.747Z,12.49
2022-12-20T10:58:59.667Z,12.50
2022-12-20T11:01:37.435Z,12.54
2022-12-20T11:04:07.390Z,12.53
2022-12-20T11:06:37.087Z,12.47
2022-12-20T11:09:19.710Z,12.54
2022-12-20T11:12:16.688Z,12.67
2022-12-20T11:14:45.523Z,12.75
2022-12-20T11:17:38.565Z,12.78
2022-12-20T11:20:16.903Z,12.75
2022-12-20T11:22:43.616Z,12.73
2022-12-20T11:25:31.728Z,12.57
2022-12-20T11:28:19.391Z,12.81
2022-12-20T11:31:04.718Z,12.84
2022-12-20T11:34:34.339Z,12.74
2022-12-20T11:37:03.939Z,12.86
2022-12-20T11:39:31.201Z,12.88
2022-12-20T11:42:49.451Z,12.87
2022-12-20T11:45:27.343Z,12.84
2022-12-20T11:48:12.861Z,12.79
2022-12-20T11:50:44.787Z,12.84
2022-12-20T11:53:23.212Z,12.91
2022-12-20T11:55:56.757Z,12.83
2022-12-20T11:58:38.633Z,12.86
2022-12-20T12:01:31.008Z,12.89
2022-12-20T12:04:13.287Z,12.85
2022-12-20T12:07:01.227Z,13.13
2022-12-20T12:09:42.459Z,12.82
2022-12-20T12:12:19.324Z,12.94
2022-12-20T12:15:04.144Z,13.05
2022-12-20T12:17:49.746Z,12.73
2022-12-20T12:20:31.218Z,12.90
2022-12-20T12:23:19.705Z,12.93
2022-12-20T12:25:46.253Z,12.88
2022-12-20T12:28:38.801Z,12.81
2022-12-20T12:31:15.398Z,12.74
2022-12-20T12:34:01.896Z,12.85
2022-12-20T12:36:47.108Z,12.85
2022-12-20T12:39:29.092Z,12.68
2022-12-20T12:42:17.920Z,12.81
2022-12-20T12:45:02.478Z,12.69
2022-12-20T12:48:06.622Z,12.68
2022-12-20T12:50:38.952Z,12.98
2022-12-20T12:56:46.256Z,12.86
2022-12-20T12:59:51.792Z,12.86
2022-12-20T13:02:20.474Z,12.84
2022-12-20T13:05:50.322Z,12.77
2022-12-20T13:08:49.194Z,12.88
2022-12-20T13:11:36.720Z,12.70
2022-12-20T13:14:24.731Z,12.78
2022-12-20T13:19:39.985Z,12.83
2022-12-20T13:22:06.643Z,12.76
2022-12-20T13:24:48.386Z,12.87
2022-12-20T13:27:25.221Z,12.87
2022-12-20T13:29:55.272Z,12.84
2022-12-20T13:32:46.751Z,12.81
2022-12-20T13:35:25.680Z,12.87
2022-12-20T13:37:55.517Z,12.65
2022-12-20T13:40:57.569Z,12.79
2022-12-20T13:43:29.083Z,12.77
2022-12-20T13:45:57.945Z,12.81
2022-12-20T13:48:39.403Z,12.84
2022-12-20T13:51:10.197Z,12.83
2022-12-20T13:53:38.939Z,12.85
2022-12-20T13:56:51.100Z,12.83
2022-12-20T13:59:27.758Z,12.82
2022-12-20T14:01:58.161Z,12.91
2022-12-20T14:04:40.874Z,12.84
2022-12-20T14:07:14.576Z,12.74
2022-12-20T14:09:45.369Z,12.76
2022-12-20T14:12:19.625Z,12.72
2022-12-20T14:14:52.580Z,12.85
2022-12-20T14:17:32.145Z,12.87
2022-12-20T14:20:06.262Z,12.79
2022-12-20T14:22:34.949Z,12.60
2022-12-20T14:25:05.442Z,12.68
2022-12-20T14:27:36.333Z,12.68
2022-12-20T14:30:05.708Z,12.69
2022-12-20T14:32:32.728Z,12.80
2022-12-20T14:34:59.585Z,12.82
2022-12-20T14:37:39.093Z,12.81
2022-12-20T14:40:12.434Z,12.82
2022-12-20T14:42:40.481Z,12.80
2022-12-20T14:45:19.087Z,12.69
2022-12-20T14:47:49.845Z,12.74
2022-12-20T14:50:35.194Z,12.72
2022-12-20T14:53:02.707Z,12.62
2022-12-20T14:55:44.710Z,12.56
2022-12-20T14:58:23.401Z,12.57
2022-12-20T15:01:23.116Z,12.46
2022-12-20T15:03:55.785Z,12.44
2022-12-20T15:06:46.056Z,12.27
2022-12-20T15:09:12.722Z,12.09
2022-12-20T15:11:42.024Z,12.09
2022-12-20T15:14:37.945Z,12.14
2022-12-20T15:17:10.689Z,12.12
2022-12-20T15:19:42.744Z,12.00
2022-12-20T15:22:15.776Z,11.78
2022-12-20T15:24:43.500Z,11.89
2022-12-20T15:27:15.057Z,11.77
2022-12-20T15:29:42.252Z,11.71
2022-12-20T15:32:28.154Z,11.76
2022-12-20T15:34:54.938Z,11.67
2022-12-20T15:37:21.562Z,11.61
2022-12-20T15:39:48.141Z,11.38
2022-12-20T15:42:17.463Z,11.55
2022-12-20T15:44:44.563Z,11.30
2022-12-20T15:47:13.098Z,11.31
2022-12-20T15:49:44.581Z,11.45
2022-12-20T15:52:23.479Z,11.50
2022-12-20T15:54:50.477Z,11.61
2022-12-20T15:57:17.150Z,11.47
2022-12-20T16:00:01.612Z,11.57
2022-12-20T16:02:38.473Z,11.52
2022-12-20T16:05:05.658Z,11.58
2022-12-20T16:07:32.233Z,11.47
2022-12-20T16:09:58.778Z,11.51
2022-12-20T16:12:33.073Z,11.51
2022-12-20T16:14:59.689Z,11.56
2022-12-20T16:17:26.400Z,11.48
2022-12-20T16:19:53.026Z,11.60
2022-12-20T16:22:22.235Z,11.68
2022-12-20T16:24:49.641Z,11.65
2022-12-20T16:27:16.331Z,11.69
2022-12-20T16:29:42.969Z,11.62
2022-12-20T16:32:18.256Z,11.63
2022-12-20T16:34:45.309Z,11.48
2022-12-20T16:37:12.053Z,11.57
2022-12-20T16:39:38.694Z,11.48
2022-12-20T16:42:17.298Z,11.41
2022-12-20T16:44:45.553Z,11.39
2022-12-20T16:47:13.976Z,11.39
2022-12-20T16:49:47.178Z,11.43
2022-12-20T16:52:18.757Z,11.31
2022-12-20T16:54:45.487Z,11.40
2022-12-20T16:57:12.109Z,11.34
2022-12-20T16:59:38.752Z,11.37
2022-12-20T17:02:20.815Z,11.45
2022-12-20T17:04:47.626Z,11.47
2022-12-20T17:07:14.272Z,11.36
2022-12-20T17:09:40.852Z,11.33
2022-12-20T17:12:33.884Z,11.38
2022-12-20T17:15:00.479Z,11.37
2022-12-20T17:17:27.099Z,11.34
2022-12-20T17:19:53.635Z,11.33
2022-12-20T17:22:23.366Z,11.36
2022-12-20T17:24:50.146Z,11.34
2022-12-20T17:27:16.727Z,11.34
2022-12-20T17:29:43.404Z,11.38
2022-12-20T17:32:28.115Z,11.26
2022-12-20T17:34:55.202Z,11.00
2022-12-20T17:37:21.955Z,11.11
2022-12-20T17:39:56.329Z,11.20
2022-12-20T17:42:28.792Z,11.17
2022-12-20T17:44:57.944Z,11.13
2022-12-20T17:47:27.330Z,11.12
2022-12-20T17:49:54.143Z,11.17
2022-12-20T17:52:21.705Z,11.11
2022-12-20T17:54:48.338Z,11.12
2022-12-20T17:57:15.864Z,11.10
2022-12-20T17:59:43.939Z,11.10
2022-12-20T18:02:28.931Z,11.18
2022-12-20T18:04:58.914Z,11.10
2022-12-20T18:07:26.701Z,11.09
2022-12-20T18:12:53.656Z,10.98
2022-12-20T18:15:20.423Z,11.02
2022-12-20T18:17:47.178Z,11.06
2022-12-20T18:20:14.487Z,10.98
2022-12-20T18:22:41.313Z,10.94
2022-12-20T18:25:08.629Z,10.99
2022-12-20T18:27:42.837Z,10.96
2022-12-20T18:30:12.231Z,10.96
2022-12-20T18:32:40.277Z,10.91
2022-12-20T18:35:07.914Z,10.96
2022-12-20T18:37:34.636Z,10.96
2022-12-20T18:40:04.322Z,10.93
2022-12-20T18:42:30.933Z,10.82
2022-12-20T18:44:57.483Z,10.83
2022-12-20T18:47:24.277Z,10.84
2022-12-20T18:49:50.986Z,10.85
2022-12-20T18:52:17.620Z,10.88
2022-12-20T18:54:44.725Z,10.85
2022-12-20T18:57:11.518Z,10.84
2022-12-20T18:59:38.404Z,10.79
2022-12-20T19:02:05.637Z,10.85
2022-12-20T19:04:32.446Z,10.78
2022-12-20T19:06:59.017Z,10.74
2022-12-20T19:09:25.686Z,10.74
2022-12-20T19:11:57.100Z,10.70
2022-12-20T19:14:24.375Z,10.80
2022-12-20T19:16:51.860Z,10.76
2022-12-20T19:19:18.672Z,10.74
2022-12-20T19:21:45.265Z,10.67
2022-12-20T19:24:12.089Z,10.67
2022-12-20T19:27:06.355Z,10.68
2022-12-20T19:29:33.128Z,10.63
2022-12-20T19:31:59.730Z,10.54
2022-12-20T19:34:26.269Z,10.52
2022-12-20T19:36:53.794Z,10.54
2022-12-20T19:39:23.346Z,10.50
2022-12-20T19:42:21.785Z,10.53
2022-12-20T19:44:37.763Z,10.46
2022-12-20T19:47:04.404Z,10.51
2022-12-20T19:49:31.023Z,10.49
2022-12-20T19:51:57.687Z,10.56
2022-12-20T19:54:24.370Z,10.52
2022-12-20T19:56:51.063Z,10.46
2022-12-20T19:59:17.641Z,10.50
2022-12-20T20:01:44.886Z,10.44
2022-12-20T20:04:11.558Z,10.51
2022-12-20T20:06:38.133Z,10.50
2022-12-20T20:09:04.664Z,10.49
2022-12-20T20:11:31.358Z,10.49
2022-12-20T20:13:58.005Z,10.45
2022-12-20T20:16:24.899Z,10.49
2022-12-20T20:18:52.255Z,10.47
2022-12-20T20:21:22.458Z,10.34
2022-12-20T20:23:51.239Z,10.37
2022-12-20T20:26:23.949Z,10.37
2022-12-20T20:28:51.241Z,10.37
2022-12-20T20:31:19.589Z,10.37
2022-12-20T20:33:46.775Z,10.40
2022-12-20T20:36:38.323Z,10.43
2022-12-20T20:39:04.934Z,10.31
2022-12-20T20:41:32.711Z,10.27
2022-12-20T20:44:06.612Z,10.28
2022-12-20T20:46:33.229Z,10.37
2022-12-20T20:48:59.794Z,10.38
2022-12-20T20:51:26.889Z,10.47
2022-12-20T20:53:53.652Z,10.56
2022-12-20T20:56:21.380Z,10.65
2022-12-20T20:58:49.846Z,10.66
2022-12-20T21:01:16.779Z,10.70
2022-12-20T21:03:43.412Z,10.72
2022-12-20T21:06:41.065Z,10.76
2022-12-20T21:09:08.697Z,10.75
2022-12-20T21:11:36.898Z,10.74
2022-12-20T21:14:03.875Z,10.82
2022-12-20T21:16:30.608Z,10.87
2022-12-20T21:18:58.736Z,10.84
2022-12-20T21:21:26.444Z,10.83
2022-12-20T21:24:01.891Z,10.96
2022-12-20T21:26:28.464Z,10.89
2022-12-20T21:29:01.351Z,10.86
2022-12-20T21:31:28.621Z,10.81
2022-12-20T21:33:58.167Z,10.88
2022-12-20T21:36:26.923Z,10.87
2022-12-20T21:39:00.328Z,10.87
2022-12-20T21:41:28.421Z,10.87
2022-12-20T21:43:56.639Z,10.87
2022-12-20T21:46:23.573Z,10.81
2022-12-20T21:48:50.418Z,10.71
2022-12-20T21:51:20.388Z,10.68
2022-12-20T21:53:51.992Z,10.76
2022-12-20T21:56:22.246Z,10.72
2022-12-20T21:58:49.407Z,10.85
2022-12-20T22:01:21.210Z,10.92
2022-12-20T22:03:52.783Z,10.91
2022-12-20T22:06:20.368Z,10.99
2022-12-20T22:08:47.218Z,10.96
2022-12-20T22:11:15.898Z,11.01
2022-12-20T22:13:42.852Z,10.98
2022-12-20T22:16:10.861Z,11.03
2022-12-20T22:18:38.100Z,10.98
2022-12-20T22:21:06.325Z,11.00
2022-12-20T22:23:33.001Z,10.99
2022-12-20T22:26:04.036Z,10.99
2022-12-20T22:28:30.626Z,10.91
2022-12-20T22:30:57.619Z,10.92
2022-12-20T22:33:24.554Z,10.97
2022-12-20T22:35:51.244Z,11.00
2022-12-20T22:38:17.790Z,10.91
2022-12-20T22:40:44.422Z,10.98
2022-12-20T22:43:10.992Z,10.96
2022-12-20T22:45:38.034Z,10.93
2022-12-20T22:48:04.906Z,10.90
2022-12-20T22:50:31.503Z,10.86
2022-12-20T22:52:58.610Z,10.91
2022-12-20T22:55:31.331Z,10.89
2022-12-20T22:57:58.026Z,10.87
2022-12-20T23:00:25.091Z,10.92
2022-12-20T23:02:51.820Z,10.83
2022-12-20T23:05:18.661Z,10.92
2022-12-20T23:07:45.442Z,11.00
2022-12-20T23:10:32.209Z,10.96
2022-12-20T23:13:17.315Z,10.87
2022-12-20T23:15:47.215Z,10.88
2022-12-20T23:18:13.782Z,10.66
2022-12-20T23:20:58.713Z,10.73
2022-12-20T23:23:25.244Z,10.74
2022-12-20T23:25:51.828Z,10.78
2022-12-20T23:28:18.455Z,10.83
2022-12-20T23:30:45.070Z,10.88
2022-12-20T23:33:11.683Z,10.82
2022-12-20T23:35:41.177Z,10.87
2022-12-20T23:38:10.024Z,10.83
2022-12-20T23:40:40.552Z,10.77
2022-12-20T23:43:07.126Z,10.86
2022-12-20T23:45:33.926Z,10.82
2022-12-20T23:48:00.547Z,10.90
2022-12-20T23:50:27.327Z,10.83
2022-12-20T23:52:53.914Z,10.82
2022-12-20T23:55:56.373Z,10.91
2022-12-20T23:58:52.334Z,10.80
